Santo Domingo, Dominican Republic
Current Conditions -  °F | °C
As of 10:00 AM on Saturday 25 Oct 2014 (Local Time) from MDSD Reporting Station
Scattered Clouds Scattered Clouds  
Wind Chill: 28°   Ceiling: Unl
Heat Index: 33°   Visibility: 6mi
Dew Point: 25°   Wind: 6mph
Humidity: 84%   Direction: 60°ENE
Pressure: 29.91"   Gusts: NA
Location:  18.48°N, 69.91°W
Report Text: MDSD 251400Z 06005KT 9999 SCT018 28/25 Q1013
Loading
Personal Weather Stations






























Interactive Weather Map New forecast layout! Learn more

10-Day Weather Forecast

Advertisements
Track Severe Weather on mobile